createdAt,value
2023-03-28T00:01:33.079Z,101978.53
2023-03-28T00:04:01.641Z,101983.50
2023-03-28T00:06:29.331Z,101991.94
2023-03-28T00:08:56.976Z,101997.06
2023-03-28T00:11:25.197Z,102000.63
2023-03-28T00:13:57.961Z,102005.78
2023-03-28T00:16:32.011Z,102007.88
2023-03-28T00:19:01.263Z,102009.16
2023-03-28T00:21:31.762Z,102008.25
2023-03-28T00:24:02.760Z,102013.47
2023-03-28T00:26:32.622Z,102009.91
2023-03-28T00:29:01.378Z,102010.66
2023-03-28T00:31:32.092Z,102018.06
2023-03-28T00:33:59.863Z,102023.78
2023-03-28T00:36:29.248Z,102021.22
2023-03-28T00:38:58.083Z,102023.59
2023-03-28T00:41:31.226Z,102029.94
2023-03-28T00:44:00.559Z,102021.22
2023-03-28T00:46:33.453Z,102027.13
2023-03-28T00:49:04.771Z,102015.91
2023-03-28T00:51:35.444Z,102022.00
2023-03-28T00:54:06.388Z,102030.50
2023-03-28T00:56:37.633Z,102024.41
2023-03-28T00:59:09.496Z,102025.25
2023-03-28T01:01:38.750Z,102033.88
2023-03-28T01:04:10.268Z,102028.16
2023-03-28T01:06:41.669Z,102029.03
2023-03-28T01:09:10.528Z,102041.28
2023-03-28T01:11:41.591Z,102040.25
2023-03-28T01:14:13.108Z,102035.72
2023-03-28T01:16:43.008Z,102033.22
2023-03-28T01:19:21.638Z,102039.13
2023-03-28T01:22:15.103Z,102045.28
2023-03-28T01:25:12.936Z,102042.84
2023-03-28T01:27:52.034Z,102047.06
2023-03-28T01:30:51.724Z,102049.69
2023-03-28T01:33:42.184Z,102049.59
2023-03-28T01:36:47.725Z,102053.81
2023-03-28T01:39:27.875Z,102063.34
2023-03-28T01:42:04.049Z,102057.91
2023-03-28T01:44:39.382Z,102062.41
2023-03-28T01:47:14.736Z,102061.38
2023-03-28T01:49:48.377Z,102067.66
2023-03-28T01:52:22.281Z,102062.59
2023-03-28T01:54:58.407Z,102067.66
2023-03-28T01:57:30.771Z,102070.56
2023-03-28T02:00:11.107Z,102058.94
2023-03-28T02:02:43.095Z,102062.53
2023-03-28T02:05:15.673Z,102066.44
2023-03-28T02:07:45.722Z,102064.38
2023-03-28T02:10:17.044Z,102063.19
2023-03-28T02:12:48.410Z,102057.66
2023-03-28T02:15:18.481Z,102058.19
2023-03-28T02:17:51.986Z,102069.81
2023-03-28T02:20:25.707Z,102062.31
2023-03-28T02:22:59.819Z,102055.75
2023-03-28T02:25:28.851Z,102049.94
2023-03-28T02:28:01.212Z,102061.53
2023-03-28T02:30:29.145Z,102067.00
2023-03-28T02:33:00.540Z,102062.06
2023-03-28T02:35:39.555Z,102063.16
2023-03-28T02:38:15.979Z,102058.09
2023-03-28T02:40:58.517Z,102063.44
2023-03-28T02:43:52.376Z,102064.47
2023-03-28T02:46:29.927Z,102069.88
2023-03-28T02:49:18.617Z,102063.97
2023-03-28T02:51:52.404Z,102065.00
2023-03-28T02:54:28.613Z,102068.53
2023-03-28T02:57:06.270Z,102064.22
2023-03-28T02:59:39.424Z,102068.72
2023-03-28T03:02:08.452Z,102078.50
2023-03-28T03:04:36.182Z,102074.41
2023-03-28T03:07:03.947Z,102083.25
2023-03-28T03:09:33.114Z,102090.44
2023-03-28T03:12:02.246Z,102080.22
2023-03-28T03:14:30.070Z,102083.00
2023-03-28T03:16:57.679Z,102079.72
2023-03-28T03:19:25.488Z,102085.91
2023-03-28T03:21:54.177Z,102085.13
2023-03-28T03:24:21.913Z,102081.88
2023-03-28T03:26:49.926Z,102095.00
2023-03-28T03:29:19.026Z,102095.13
2023-03-28T03:31:47.340Z,102098.66
2023-03-28T03:34:15.045Z,102095.19
2023-03-28T03:36:42.980Z,102093.50
2023-03-28T03:39:10.582Z,102094.34
2023-03-28T03:41:38.280Z,102102.09
2023-03-28T03:44:06.356Z,102100.25
2023-03-28T03:46:35.689Z,102099.22
2023-03-28T03:49:03.430Z,102101.66
2023-03-28T03:51:31.018Z,102095.41
2023-03-28T03:53:58.659Z,102102.34
2023-03-28T03:56:26.382Z,102097.03
2023-03-28T03:58:54.401Z,102105.63
2023-03-28T04:01:22.382Z,102100.25
2023-03-28T04:03:51.812Z,102097.63
2023-03-28T04:06:19.591Z,102107.16
2023-03-28T04:08:47.607Z,102107.91
2023-03-28T04:11:15.197Z,102103.53
2023-03-28T04:13:42.824Z,102107.81
2023-03-28T04:16:11.894Z,102114.81
2023-03-28T04:18:39.583Z,102101.56
2023-03-28T04:21:10.280Z,102111.97
2023-03-28T04:23:43.894Z,102114.56
2023-03-28T04:26:20.562Z,102113.66
2023-03-28T04:28:48.618Z,102120.66
2023-03-28T04:31:16.239Z,102111.97
2023-03-28T04:33:45.427Z,102119.06
2023-03-28T04:36:16.802Z,102128.00
2023-03-28T04:38:45.792Z,102128.91
2023-03-28T04:41:16.836Z,102129.94
2023-03-28T04:43:44.916Z,102131.81
2023-03-28T04:46:12.660Z,102136.28
2023-03-28T04:48:40.321Z,102138.06
2023-03-28T04:51:08.827Z,102138.13
2023-03-28T04:53:37.792Z,102142.44
2023-03-28T04:56:06.383Z,102144.19
2023-03-28T04:58:33.999Z,102153.91
2023-03-28T05:01:04.115Z,102144.31
2023-03-28T05:03:31.971Z,102154.66
2023-03-28T05:05:59.653Z,102158.03
2023-03-28T05:08:27.715Z,102159.72
2023-03-28T05:10:56.984Z,102170.88
2023-03-28T05:13:25.890Z,102173.22
2023-03-28T05:15:53.707Z,102176.50
2023-03-28T05:18:21.338Z,102180.56
2023-03-28T05:20:49.195Z,102186.47
2023-03-28T05:23:16.784Z,102182.78
2023-03-28T05:25:44.732Z,102186.81
2023-03-28T05:28:13.893Z,102195.16
2023-03-28T05:30:41.714Z,102192.97
2023-03-28T05:33:09.342Z,102186.28
2023-03-28T05:35:37.264Z,102194.50
2023-03-28T05:38:05.106Z,102187.47
2023-03-28T05:40:33.216Z,102201.47
2023-03-28T05:43:00.908Z,102199.50
2023-03-28T05:45:29.992Z,102199.47
2023-03-28T05:47:57.841Z,102207.06
2023-03-28T05:50:26.297Z,102212.59
2023-03-28T05:52:54.158Z,102201.03
2023-03-28T05:55:21.799Z,102199.63
2023-03-28T05:57:49.412Z,102204.41
2023-03-28T06:00:18.816Z,102202.84
2023-03-28T06:02:50.663Z,102195.00
2023-03-28T06:05:18.942Z,102187.63
2023-03-28T06:07:46.516Z,102189.25
2023-03-28T06:10:15.660Z,102180.75
2023-03-28T06:12:43.393Z,102188.66
2023-03-28T06:15:12.608Z,102185.91
2023-03-28T06:17:40.596Z,102186.56
2023-03-28T06:20:11.260Z,102187.34
2023-03-28T06:22:39.422Z,102189.06
2023-03-28T06:25:08.108Z,102187.25
2023-03-28T06:27:35.829Z,102191.47
2023-03-28T06:30:04.519Z,102187.19
2023-03-28T06:32:32.252Z,102184.91
2023-03-28T06:34:59.893Z,102190.56
2023-03-28T06:37:28.915Z,102189.38
2023-03-28T06:39:56.906Z,102192.25
2023-03-28T06:42:24.685Z,102190.41
2023-03-28T06:44:52.654Z,102195.25
2023-03-28T06:47:20.603Z,102196.09
2023-03-28T06:49:48.299Z,102194.84
2023-03-28T06:52:16.784Z,102203.34
2023-03-28T06:54:48.369Z,102211.13
2023-03-28T06:57:16.741Z,102212.91
2023-03-28T06:59:44.418Z,102214.53
2023-03-28T07:02:12.521Z,102221.94
2023-03-28T07:04:40.215Z,102225.34
2023-03-28T07:07:09.270Z,102224.41
2023-03-28T07:09:37.203Z,102222.88
2023-03-28T07:12:06.848Z,102236.78
2023-03-28T07:14:34.575Z,102238.00
2023-03-28T07:17:02.296Z,102245.75
2023-03-28T07:19:30.108Z,102246.69
2023-03-28T07:21:57.782Z,102253.44
2023-03-28T07:24:25.629Z,102250.63
2023-03-28T07:27:01.298Z,102253.34
2023-03-28T07:29:41.308Z,102256.25
2023-03-28T07:32:08.895Z,102257.34
2023-03-28T07:34:36.853Z,102260.19
2023-03-28T07:37:05.202Z,102264.06
2023-03-28T07:39:34.435Z,102260.00
2023-03-28T07:42:02.241Z,102266.50
2023-03-28T07:44:29.801Z,102262.22
2023-03-28T07:46:59.081Z,102263.91
2023-03-28T07:49:26.723Z,102264.13
2023-03-28T07:51:54.410Z,102265.53
2023-03-28T07:54:22.202Z,102263.59
2023-03-28T07:56:50.000Z,102266.41
2023-03-28T07:59:18.015Z,102272.91
2023-03-28T08:01:47.406Z,102275.72
2023-03-28T08:04:16.459Z,102278.69
2023-03-28T08:06:45.627Z,102277.50
2023-03-28T08:09:15.188Z,102276.44
2023-03-28T08:11:44.214Z,102287.41
2023-03-28T08:14:14.181Z,102286.66
2023-03-28T08:16:43.060Z,102281.50
2023-03-28T08:19:12.142Z,102291.41
2023-03-28T08:21:41.295Z,102296.28
2023-03-28T08:24:12.049Z,102298.44
2023-03-28T08:26:43.253Z,102290.66
2023-03-28T08:29:11.553Z,102296.78
2023-03-28T08:31:39.388Z,102295.72
2023-03-28T08:34:07.079Z,102302.13
2023-03-28T08:36:34.911Z,102302.59
2023-03-28T08:39:05.311Z,102310.81
2023-03-28T08:42:00.629Z,102307.88
2023-03-28T08:44:51.927Z,102320.06
2023-03-28T08:47:26.342Z,102313.38
2023-03-28T08:49:57.782Z,102311.25
2023-03-28T08:52:25.716Z,102308.44
2023-03-28T08:55:01.398Z,102304.66
2023-03-28T08:57:31.150Z,102297.78
2023-03-28T09:00:09.003Z,102303.31
2023-03-28T09:02:37.006Z,102296.16
2023-03-28T09:05:22.001Z,102301.91
2023-03-28T09:07:59.823Z,102298.25
2023-03-28T09:10:40.505Z,102304.44
2023-03-28T09:13:22.781Z,102298.25
2023-03-28T09:16:01.235Z,102303.69
2023-03-28T09:18:45.928Z,102299.72
2023-03-28T09:21:19.641Z,102292.06
2023-03-28T09:24:11.140Z,102296.31
2023-03-28T09:26:45.468Z,102302.09
2023-03-28T09:29:17.780Z,102290.81
2023-03-28T09:31:48.465Z,102295.94
2023-03-28T09:34:23.050Z,102293.19
2023-03-28T09:36:55.426Z,102289.22
2023-03-28T09:39:34.051Z,102277.31
2023-03-28T09:42:09.223Z,102278.81
2023-03-28T09:44:53.646Z,102285.13
2023-03-28T09:47:22.722Z,102278.41
2023-03-28T09:49:54.426Z,102287.25
2023-03-28T09:52:31.815Z,102286.50
2023-03-28T09:55:00.444Z,102287.91
2023-03-28T09:58:02.687Z,102285.31
2023-03-28T10:00:35.488Z,102292.75
2023-03-28T10:03:03.382Z,102291.06
2023-03-28T10:05:37.227Z,102290.13
2023-03-28T10:08:19.695Z,102297.91
2023-03-28T10:10:56.220Z,102294.19
2023-03-28T10:13:26.217Z,102296.75
2023-03-28T10:15:57.802Z,102297.72
2023-03-28T10:18:28.232Z,102289.22
2023-03-28T10:20:56.546Z,102288.03
2023-03-28T10:23:25.560Z,102280.09
2023-03-28T10:25:55.116Z,102282.97
2023-03-28T10:28:32.702Z,102283.91
2023-03-28T10:31:03.054Z,102279.00
2023-03-28T10:33:35.067Z,102271.94
2023-03-28T10:36:05.342Z,102282.53
2023-03-28T10:38:38.342Z,102281.91
2023-03-28T10:41:11.566Z,102282.09
2023-03-28T10:43:42.116Z,102287.47
2023-03-28T10:46:15.413Z,102283.94
2023-03-28T10:48:48.957Z,102291.63
2023-03-28T10:51:21.960Z,102279.25
2023-03-28T10:54:04.307Z,102288.34
2023-03-28T10:56:38.444Z,102289.50
2023-03-28T10:59:40.231Z,102290.94
2023-03-28T11:02:30.315Z,102297.03
2023-03-28T11:05:02.663Z,102289.28
2023-03-28T11:07:38.325Z,102287.28
2023-03-28T11:10:15.203Z,102285.72
2023-03-28T11:12:56.621Z,102283.50
2023-03-28T11:15:32.527Z,102283.66
2023-03-28T11:18:17.495Z,102278.22
2023-03-28T11:20:51.939Z,102277.22
2023-03-28T11:23:38.659Z,102284.22
2023-03-28T11:26:09.574Z,102286.31
2023-03-28T11:28:58.847Z,102285.78
2023-03-28T11:31:32.978Z,102291.25
2023-03-28T11:34:05.675Z,102296.06
2023-03-28T11:36:37.230Z,102299.34
2023-03-28T11:39:14.840Z,102301.75
2023-03-28T11:41:45.990Z,102301.75
2023-03-28T11:44:19.075Z,102305.41
2023-03-28T11:46:52.147Z,102301.06
2023-03-28T11:49:26.992Z,102307.63
2023-03-28T11:52:00.269Z,102304.03
2023-03-28T11:54:36.499Z,102303.47
2023-03-28T11:57:12.663Z,102294.56
2023-03-28T11:59:46.356Z,102288.84
2023-03-28T12:02:36.231Z,102284.56
2023-03-28T12:05:08.087Z,102284.00
2023-03-28T12:07:43.161Z,102273.69
2023-03-28T12:10:21.809Z,102278.66
2023-03-28T12:12:58.091Z,102287.31
2023-03-28T12:15:34.570Z,102284.91
2023-03-28T12:18:07.858Z,102280.28
2023-03-28T12:20:40.547Z,102281.66
2023-03-28T12:23:12.709Z,102283.81
2023-03-28T12:25:47.148Z,102281.19
2023-03-28T12:28:25.180Z,102280.69
2023-03-28T12:31:04.380Z,102276.59
2023-03-28T12:33:45.618Z,102287.41
2023-03-28T12:36:20.400Z,102276.75
2023-03-28T12:38:55.615Z,102270.13
2023-03-28T12:41:27.758Z,102263.16
2023-03-28T12:43:58.810Z,102269.84
2023-03-28T12:46:30.637Z,102261.66
2023-03-28T12:49:02.909Z,102261.53
2023-03-28T12:51:37.098Z,102256.09
2023-03-28T12:54:23.268Z,102252.22
2023-03-28T12:57:02.011Z,102251.66
2023-03-28T13:00:05.305Z,102252.88
2023-03-28T13:02:41.941Z,102247.91
2023-03-28T13:05:18.875Z,102258.38
2023-03-28T13:07:57.596Z,102252.44
2023-03-28T13:10:34.512Z,102244.75
2023-03-28T13:13:14.388Z,102246.25
2023-03-28T13:16:02.160Z,102243.09
2023-03-28T13:18:34.752Z,102246.81
2023-03-28T13:21:07.131Z,102236.91
2023-03-28T13:23:38.405Z,102240.09
2023-03-28T13:26:08.116Z,102238.41
2023-03-28T13:28:43.380Z,102226.09
2023-03-28T13:31:19.368Z,102236.44
2023-03-28T13:33:49.094Z,102227.00
2023-03-28T13:36:24.551Z,102228.31
2023-03-28T13:39:00.799Z,102221.38
2023-03-28T13:41:55.071Z,102222.69
2023-03-28T13:44:28.511Z,102221.00
2023-03-28T13:46:56.852Z,102219.19
2023-03-28T13:49:32.855Z,102217.97
2023-03-28T13:52:08.245Z,102208.00
2023-03-28T13:54:36.098Z,102195.97
2023-03-28T13:57:06.385Z,102208.91
2023-03-28T13:59:36.382Z,102206.09
2023-03-28T14:02:17.572Z,102202.84
2023-03-28T14:04:53.121Z,102185.84
2023-03-28T14:07:28.860Z,102188.88
2023-03-28T14:09:57.414Z,102190.59
2023-03-28T14:12:28.412Z,102187.44
2023-03-28T14:14:59.408Z,102181.00
2023-03-28T14:17:30.540Z,102184.69
2023-03-28T14:20:01.326Z,102182.06
2023-03-28T14:22:32.416Z,102175.31
2023-03-28T14:25:02.456Z,102170.81
2023-03-28T14:27:36.338Z,102168.19
2023-03-28T14:30:17.180Z,102162.94
2023-03-28T14:32:57.424Z,102161.34
2023-03-28T14:35:27.637Z,102154.44
2023-03-28T14:37:57.908Z,102158.72
2023-03-28T14:40:35.532Z,102160.19
2023-03-28T14:43:06.087Z,102153.69
2023-03-28T14:45:37.613Z,102144.47
2023-03-28T14:48:07.654Z,102147.66
2023-03-28T14:50:39.024Z,102141.19
2023-03-28T14:53:10.388Z,102136.00
2023-03-28T14:55:38.590Z,102133.09
2023-03-28T14:58:07.329Z,102129.75
2023-03-28T15:00:38.111Z,102122.03
2023-03-28T15:03:08.571Z,102125.50
2023-03-28T15:05:37.326Z,102116.81
2023-03-28T15:08:06.945Z,102117.31
2023-03-28T15:10:36.384Z,102120.06
2023-03-28T15:13:12.803Z,102114.84
2023-03-28T15:15:46.063Z,102118.56
2023-03-28T15:18:17.603Z,102111.03
2023-03-28T15:20:49.149Z,102111.28
2023-03-28T15:23:22.050Z,102110.00
2023-03-28T15:25:52.262Z,102109.16
2023-03-28T15:28:20.938Z,102107.81
2023-03-28T15:30:50.915Z,102102.50
2023-03-28T15:33:21.578Z,102092.88
2023-03-28T15:35:49.854Z,102103.50
2023-03-28T15:38:21.539Z,102094.63
2023-03-28T15:40:52.614Z,102099.09
2023-03-28T15:43:39.670Z,102083.50
2023-03-28T15:46:12.798Z,102092.66
2023-03-28T15:48:42.257Z,102090.94
2023-03-28T15:51:15.422Z,102087.88
2023-03-28T15:53:44.021Z,102085.53
2023-03-28T15:56:22.566Z,102094.81
2023-03-28T15:58:50.871Z,102085.97
2023-03-28T16:01:21.801Z,102087.22
2023-03-28T16:03:50.636Z,102082.09
2023-03-28T16:06:31.505Z,102089.44
2023-03-28T16:09:15.126Z,102076.44
2023-03-28T16:11:45.272Z,102074.63
2023-03-28T16:14:17.387Z,102063.53
2023-03-28T16:16:45.228Z,102066.50
2023-03-28T16:19:18.998Z,102071.97
2023-03-28T16:21:46.729Z,102070.38
2023-03-28T16:24:14.883Z,102069.03
2023-03-28T16:26:43.970Z,102074.00
2023-03-28T16:29:12.122Z,102070.69
2023-03-28T16:31:40.476Z,102072.66
2023-03-28T16:34:10.031Z,102066.25
2023-03-28T16:36:38.136Z,102071.22
2023-03-28T16:39:06.295Z,102076.25
2023-03-28T16:41:34.018Z,102067.19
2023-03-28T16:44:02.942Z,102059.91
2023-03-28T16:46:30.710Z,102071.91
2023-03-28T16:48:58.965Z,102065.50
2023-03-28T16:51:26.784Z,102069.16
2023-03-28T16:53:54.371Z,102069.44
2023-03-28T16:56:25.648Z,102070.41
2023-03-28T16:58:53.432Z,102075.88
2023-03-28T17:01:22.889Z,102066.41
2023-03-28T17:03:52.663Z,102065.47
2023-03-28T17:06:20.480Z,102061.13
2023-03-28T17:08:49.525Z,102063.22
2023-03-28T17:11:17.726Z,102060.56
2023-03-28T17:13:47.439Z,102060.59
2023-03-28T17:16:15.139Z,102064.63
2023-03-28T17:18:44.202Z,102057.50
2023-03-28T17:21:13.464Z,102059.75
2023-03-28T17:23:43.010Z,102052.38
2023-03-28T17:26:12.065Z,102053.31
2023-03-28T17:28:42.159Z,102059.34
2023-03-28T17:31:12.367Z,102065.19
2023-03-28T17:33:40.315Z,102060.44
2023-03-28T17:36:21.920Z,102058.63
2023-03-28T17:38:50.918Z,102055.41
2023-03-28T17:41:19.161Z,102064.06
2023-03-28T17:43:47.348Z,102060.56
2023-03-28T17:46:15.094Z,102058.59
2023-03-28T17:48:43.552Z,102057.19
2023-03-28T17:51:12.384Z,102047.25
2023-03-28T17:53:42.882Z,102051.28
2023-03-28T17:56:11.848Z,102047.81
2023-03-28T17:58:39.638Z,102040.41
2023-03-28T18:01:10.288Z,102041.78
2023-03-28T18:03:39.016Z,102039.56
2023-03-28T18:06:07.732Z,102040.63
2023-03-28T18:08:35.628Z,102033.22
2023-03-28T18:11:07.264Z,102029.84
2023-03-28T18:13:35.994Z,102024.72
2023-03-28T18:16:05.256Z,102025.81
2023-03-28T18:18:33.256Z,102024.41
2023-03-28T18:21:00.983Z,102023.72
2023-03-28T18:23:28.628Z,102022.16
2023-03-28T18:25:56.542Z,102018.81
2023-03-28T18:28:25.955Z,102007.63
2023-03-28T18:30:54.700Z,102011.41
2023-03-28T18:33:23.013Z,102016.00
2023-03-28T18:35:50.742Z,102005.94
2023-03-28T18:38:18.839Z,102007.16
2023-03-28T18:40:52.327Z,102013.72
2023-03-28T18:43:20.077Z,102007.00
2023-03-28T18:45:53.914Z,101999.22
2023-03-28T18:48:21.868Z,101994.28
2023-03-28T18:50:49.553Z,102000.00
2023-03-28T18:53:18.559Z,101993.28
2023-03-28T18:55:46.694Z,101989.22
2023-03-28T18:58:14.315Z,101986.97
2023-03-28T19:00:42.080Z,101987.34
2023-03-28T19:03:17.332Z,101993.75
2023-03-28T19:05:45.318Z,101986.22
2023-03-28T19:08:12.884Z,101978.41
2023-03-28T19:10:46.264Z,101984.53
2023-03-28T19:13:13.889Z,101981.88
2023-03-28T19:15:41.487Z,101974.81
2023-03-28T19:18:09.211Z,101968.69
2023-03-28T19:20:39.183Z,101960.03
2023-03-28T19:23:07.609Z,101962.53
2023-03-28T19:25:35.236Z,101957.41
2023-03-28T19:28:02.880Z,101954.75
2023-03-28T19:30:31.393Z,101962.53
2023-03-28T19:32:59.276Z,101951.13
2023-03-28T19:35:27.249Z,101952.13
2023-03-28T19:37:56.223Z,101954.75
2023-03-28T19:40:25.799Z,101950.44
2023-03-28T19:42:53.459Z,101938.91
2023-03-28T19:45:21.031Z,101934.44
2023-03-28T19:47:48.663Z,101940.69
2023-03-28T19:50:16.882Z,101937.09
2023-03-28T19:52:44.526Z,101932.78
2023-03-28T19:55:13.605Z,101937.09
2023-03-28T19:57:41.303Z,101942.25
2023-03-28T20:00:11.115Z,101932.63
2023-03-28T20:02:38.863Z,101937.78
2023-03-28T20:05:07.287Z,101930.72
2023-03-28T20:07:35.122Z,101933.19
2023-03-28T20:10:02.732Z,101932.25
2023-03-28T20:12:32.552Z,101931.97
2023-03-28T20:15:00.734Z,101940.03
2023-03-28T20:17:28.377Z,101932.81
2023-03-28T20:19:56.080Z,101934.22
2023-03-28T20:22:24.397Z,101932.81
2023-03-28T20:24:52.134Z,101939.22
2023-03-28T20:27:19.730Z,101929.34
2023-03-28T20:29:48.721Z,101928.66
2023-03-28T20:32:16.369Z,101916.97
2023-03-28T20:34:44.093Z,101921.13
2023-03-28T20:37:14.132Z,101912.09
2023-03-28T20:39:41.817Z,101908.34
2023-03-28T20:42:09.468Z,101900.41
2023-03-28T20:44:38.985Z,101898.63
2023-03-28T20:47:10.561Z,101900.16
2023-03-28T20:49:46.038Z,101885.97
2023-03-28T20:52:14.249Z,101882.34
2023-03-28T20:54:41.973Z,101875.13
2023-03-28T20:57:09.715Z,101870.78
2023-03-28T20:59:40.601Z,101869.00
2023-03-28T21:02:10.711Z,101864.53
2023-03-28T21:04:39.674Z,101866.19
2023-03-28T21:07:07.412Z,101866.19
2023-03-28T21:09:35.032Z,101856.88
2023-03-28T21:12:02.652Z,101861.47
2023-03-28T21:14:30.409Z,101863.28
2023-03-28T21:16:58.589Z,101858.00
2023-03-28T21:19:27.676Z,101854.78
2023-03-28T21:21:57.073Z,101850.19
2023-03-28T21:24:24.811Z,101855.19
2023-03-28T21:26:52.453Z,101842.81
2023-03-28T21:29:20.282Z,101840.16
2023-03-28T21:31:48.528Z,101842.13
2023-03-28T21:34:16.572Z,101846.16
2023-03-28T21:36:45.808Z,101841.00
2023-03-28T21:39:13.760Z,101838.38
2023-03-28T21:41:41.376Z,101837.38
2023-03-28T21:44:08.973Z,101841.00
2023-03-28T21:46:36.691Z,101836.69
2023-03-28T21:49:04.585Z,101832.94
2023-03-28T21:51:32.630Z,101839.22
2023-03-28T21:54:01.663Z,101827.91
2023-03-28T21:56:29.405Z,101840.03
2023-03-28T21:58:57.124Z,101825.41
2023-03-28T22:01:24.711Z,101830.28
2023-03-28T22:03:52.427Z,101829.28
2023-03-28T22:06:20.625Z,101831.94
2023-03-28T22:08:52.409Z,101826.06
2023-03-28T22:11:27.384Z,101825.13
2023-03-28T22:14:01.268Z,101824.16
2023-03-28T22:16:31.376Z,101817.34
2023-03-28T22:19:00.683Z,101813.00
2023-03-28T22:21:30.139Z,101808.41
2023-03-28T22:23:58.562Z,101807.56
2023-03-28T22:26:28.207Z,101808.09
2023-03-28T22:28:57.455Z,101807.31
2023-03-28T22:31:25.498Z,101800.19
2023-03-28T22:33:53.837Z,101802.28
2023-03-28T22:36:21.642Z,101800.44
2023-03-28T22:38:49.524Z,101800.59
2023-03-28T22:41:17.115Z,101796.69
2023-03-28T22:43:46.983Z,101798.22
2023-03-28T22:46:16.484Z,101796.53
2023-03-28T22:48:44.324Z,101789.03
2023-03-28T22:51:12.497Z,101792.06
2023-03-28T22:53:40.530Z,101792.06
2023-03-28T22:56:09.099Z,101790.25
2023-03-28T22:58:36.978Z,101788.72
2023-03-28T23:01:06.874Z,101791.38
2023-03-28T23:03:34.483Z,101793.59
2023-03-28T23:06:03.273Z,101794.41
2023-03-28T23:08:31.118Z,101789.94
2023-03-28T23:10:58.741Z,101787.72
2023-03-28T23:13:26.546Z,101784.25
2023-03-28T23:15:55.321Z,101773.66
2023-03-28T23:18:24.420Z,101780.91
2023-03-28T23:20:52.000Z,101776.47
2023-03-28T23:23:19.835Z,101768.66
2023-03-28T23:25:48.191Z,101775.16
2023-03-28T23:28:17.241Z,101771.50
2023-03-28T23:30:46.342Z,101761.94
2023-03-28T23:33:14.407Z,101764.00
2023-03-28T23:35:44.511Z,101755.50
2023-03-28T23:38:13.896Z,101755.75
2023-03-28T23:40:41.669Z,101754.22
2023-03-28T23:43:09.495Z,101758.66
2023-03-28T23:45:37.806Z,101751.72
2023-03-28T23:48:07.289Z,101753.66
2023-03-28T23:50:35.058Z,101746.69
2023-03-28T23:53:04.512Z,101745.03
2023-03-28T23:55:32.671Z,101737.13
2023-03-28T23:58:03.319Z,101734.31
